Mount Carmel, Mississippi
Current Conditions -  °F | °C
As of 7:55 PM on Wednesday 26 Nov 2014 (Local Time) from K1R7 Reporting Station
Clear Clear  
Wind Chill: 55°   Ceiling: Unl
Heat Index: 55°   Visibility: 10mi
Dew Point: 41°   Wind: 7mph
Humidity: 58%   Direction: 230°SW
Pressure: 30.18"   Gusts: NA
Location:  31.5969°N, 89.8752°W
Report Text: K1R7 270155Z AUTO 23006KT 10SM CLR 13/05 A3018 RMK AO2
Loading
Personal Weather Stations






























Interactive Weather Map New forecast layout! Learn more

10-Day Weather Forecast

Advertisements
Track Severe Weather on mobile